createdAt,value
2019-02-28T00:01:04.825Z,6.58
2019-02-28T00:03:33.627Z,6.58
2019-02-28T00:06:02.484Z,5.97
2019-02-28T00:08:31.304Z,5.72
2019-02-28T00:11:02.050Z,4.22
2019-02-28T00:13:30.837Z,5.25
2019-02-28T00:16:00.182Z,4.78
2019-02-28T00:18:30.146Z,4.25
2019-02-28T00:20:59.072Z,7.22
2019-02-28T00:23:27.980Z,6.87
2019-02-28T00:25:56.746Z,4.92
2019-02-28T00:28:26.526Z,4.62
2019-02-28T00:30:55.529Z,6.25
2019-02-28T00:33:24.286Z,8.33
2019-02-28T00:35:53.152Z,4.37
2019-02-28T00:38:22.033Z,4.83
2019-02-28T00:40:50.935Z,6.55
2019-02-28T00:43:22.309Z,6.42
2019-02-28T00:45:50.314Z,5.67
2019-02-28T00:48:21.588Z,4.25
2019-02-28T00:50:49.723Z,6.90
2019-02-28T00:53:18.591Z,6.00
2019-02-28T00:55:47.393Z,5.22
2019-02-28T00:58:16.300Z,4.08
2019-02-28T01:00:45.166Z,4.67
2019-02-28T01:03:14.039Z,5.78
2019-02-28T01:05:42.881Z,5.22
2019-02-28T01:08:11.765Z,4.90
2019-02-28T01:10:40.585Z,4.35
2019-02-28T01:13:09.414Z,5.17
2019-02-28T01:15:41.217Z,6.60
2019-02-28T01:18:08.927Z,5.53
2019-02-28T01:20:37.785Z,4.83
2019-02-28T01:23:06.616Z,4.62
2019-02-28T01:25:37.177Z,5.10
2019-02-28T01:28:05.888Z,4.03
2019-02-28T01:30:37.073Z,5.40
2019-02-28T01:33:05.257Z,7.00
2019-02-28T01:35:34.120Z,5.75
2019-02-28T01:38:02.923Z,4.55
2019-02-28T01:40:31.656Z,5.20
2019-02-28T01:43:00.480Z,5.05
2019-02-28T01:45:29.306Z,4.50
2019-02-28T01:47:58.202Z,3.58
2019-02-28T01:50:29.696Z,4.33
2019-02-28T01:52:57.448Z,3.90
2019-02-28T01:55:26.226Z,6.10
2019-02-28T01:57:55.190Z,3.90
2019-02-28T02:00:24.512Z,4.22
2019-02-28T02:02:53.594Z,3.60
2019-02-28T02:05:22.495Z,5.58
2019-02-28T02:07:51.299Z,4.62
2019-02-28T02:10:22.223Z,4.70
2019-02-28T02:12:51.261Z,4.65
2019-02-28T02:15:20.101Z,3.65
2019-02-28T02:17:48.894Z,3.87
2019-02-28T02:20:17.747Z,2.98
2019-02-28T02:22:46.501Z,3.85
2019-02-28T02:25:15.392Z,5.65
2019-02-28T02:27:44.310Z,5.25
2019-02-28T02:30:16.482Z,3.30
2019-02-28T02:32:45.303Z,4.20
2019-02-28T02:35:14.093Z,3.60
2019-02-28T02:37:42.843Z,4.37
2019-02-28T02:40:12.094Z,3.83
2019-02-28T02:42:47.545Z,3.92
2019-02-28T02:45:11.892Z,5.12
2019-02-28T02:47:40.845Z,3.75
2019-02-28T02:50:11.566Z,4.08
2019-02-28T02:52:40.357Z,3.40
2019-02-28T02:55:09.246Z,3.72
2019-02-28T02:57:38.078Z,4.80
2019-02-28T03:00:13.817Z,3.67
2019-02-28T03:02:40.639Z,3.65
2019-02-28T03:05:09.448Z,4.87
2019-02-28T03:07:38.362Z,3.50
2019-02-28T03:10:08.041Z,3.45
2019-02-28T03:12:36.813Z,3.17
2019-02-28T03:15:05.869Z,5.08
2019-02-28T03:17:34.666Z,3.80
2019-02-28T03:20:07.418Z,3.20
2019-02-28T03:22:34.208Z,3.70
2019-02-28T03:25:03.110Z,4.00
2019-02-28T03:27:31.885Z,3.98
2019-02-28T03:30:00.867Z,3.50
2019-02-28T03:32:39.790Z,4.53
2019-02-28T03:35:00.621Z,3.35
2019-02-28T03:37:33.527Z,3.95
2019-02-28T03:40:04.359Z,3.35
2019-02-28T03:42:30.631Z,4.22
2019-02-28T03:44:59.464Z,5.28
2019-02-28T03:47:28.274Z,3.47
2019-02-28T03:49:57.114Z,3.12
2019-02-28T03:52:26.023Z,3.70
2019-02-28T03:54:54.797Z,3.60
2019-02-28T03:57:28.023Z,4.22
2019-02-28T03:59:56.728Z,3.85
2019-02-28T04:02:24.747Z,3.87
2019-02-28T04:04:53.647Z,4.03
2019-02-28T04:07:22.489Z,3.55
2019-02-28T04:09:51.255Z,3.50
2019-02-28T04:12:20.080Z,3.98
2019-02-28T04:14:48.920Z,3.22
2019-02-28T04:17:17.801Z,2.98
2019-02-28T04:19:46.589Z,4.25
2019-02-28T04:22:15.359Z,3.47
2019-02-28T04:24:46.235Z,3.17
2019-02-28T04:27:14.570Z,4.17
2019-02-28T04:29:43.338Z,4.17
2019-02-28T04:32:12.131Z,4.85
2019-02-28T04:34:41.066Z,4.50
2019-02-28T04:37:09.892Z,3.12
2019-02-28T04:39:38.702Z,3.65
2019-02-28T04:42:07.562Z,3.90
2019-02-28T04:44:36.460Z,4.33
2019-02-28T04:47:06.763Z,4.58
2019-02-28T04:49:35.834Z,3.27
2019-02-28T04:52:04.614Z,5.20
2019-02-28T04:54:33.422Z,3.47
2019-02-28T04:57:02.322Z,3.30
2019-02-28T04:59:31.530Z,4.15
2019-02-28T05:02:01.654Z,5.58
2019-02-28T05:04:33.252Z,3.42
2019-02-28T05:07:01.067Z,4.60
2019-02-28T05:09:29.972Z,5.97
2019-02-28T05:11:58.825Z,5.47
2019-02-28T05:14:27.642Z,2.90
2019-02-28T05:16:56.430Z,3.80
2019-02-28T05:19:25.191Z,4.80
2019-02-28T05:21:54.365Z,5.75
2019-02-28T05:24:23.255Z,3.55
2019-02-28T05:26:51.982Z,4.20
2019-02-28T05:29:20.799Z,3.52
2019-02-28T05:31:49.621Z,5.33
2019-02-28T05:34:18.480Z,5.83
2019-02-28T05:36:47.297Z,3.50
2019-02-28T05:39:16.133Z,6.42
2019-02-28T05:41:49.170Z,3.87
2019-02-28T05:44:15.454Z,4.40
2019-02-28T05:46:44.229Z,4.22
2019-02-28T05:49:13.004Z,5.08
2019-02-28T05:51:41.795Z,4.20
2019-02-28T05:54:15.935Z,4.42
2019-02-28T05:56:41.212Z,6.03
2019-02-28T05:59:10.130Z,3.77
2019-02-28T06:01:38.935Z,5.08
2019-02-28T06:04:07.864Z,5.62
2019-02-28T06:06:36.694Z,4.75
2019-02-28T06:09:06.724Z,5.92
2019-02-28T06:11:35.885Z,5.85
2019-02-28T06:14:04.790Z,4.87
2019-02-28T06:16:33.568Z,3.62
2019-02-28T06:19:04.590Z,4.60
2019-02-28T06:21:32.973Z,3.58
2019-02-28T06:24:01.776Z,4.40
2019-02-28T06:26:31.795Z,5.17
2019-02-28T06:29:04.604Z,4.80
2019-02-28T06:31:31.721Z,4.53
2019-02-28T06:34:00.594Z,6.85
2019-02-28T06:36:29.948Z,9.35
2019-02-28T06:38:58.891Z,8.75
2019-02-28T06:41:27.753Z,7.90
2019-02-28T06:43:56.509Z,6.17
2019-02-28T06:46:25.340Z,10.25
2019-02-28T06:48:54.267Z,12.30
2019-02-28T06:51:23.184Z,8.28
2019-02-28T06:53:52.039Z,10.13
2019-02-28T06:56:22.663Z,8.53
2019-02-28T06:58:51.636Z,9.98
2019-02-28T07:01:22.638Z,11.88
2019-02-28T07:03:53.663Z,10.45
2019-02-28T07:06:21.644Z,13.50
2019-02-28T07:08:50.396Z,14.70
2019-02-28T07:11:19.834Z,14.85
2019-02-28T07:13:49.528Z,14.50
2019-02-28T07:16:18.460Z,17.62
2019-02-28T07:18:52.824Z,13.00
2019-02-28T07:21:19.705Z,12.90
2019-02-28T07:23:48.508Z,14.93
2019-02-28T07:26:18.722Z,13.05
2019-02-28T07:28:48.916Z,11.53
2019-02-28T07:31:17.820Z,12.65
2019-02-28T07:33:48.494Z,9.55
2019-02-28T07:36:17.250Z,10.03
2019-02-28T07:38:46.134Z,10.58
2019-02-28T07:41:14.970Z,12.65
2019-02-28T07:43:46.270Z,11.70
2019-02-28T07:46:14.402Z,37.13
2019-02-28T07:48:43.195Z,45.25
2019-02-28T07:51:12.120Z,52.38
2019-02-28T07:53:41.933Z,49.48
2019-02-28T07:56:11.015Z,52.17
2019-02-28T07:58:39.949Z,51.75
2019-02-28T08:01:08.865Z,52.43
2019-02-28T08:03:37.687Z,57.75
2019-02-28T08:06:06.613Z,60.88
2019-02-28T08:08:35.426Z,56.92
2019-02-28T08:11:04.323Z,52.30
2019-02-28T08:13:34.545Z,49.25
2019-02-28T08:16:03.612Z,52.93
2019-02-28T08:18:32.374Z,52.05
2019-02-28T08:21:01.215Z,49.48
2019-02-28T08:23:31.282Z,46.95
2019-02-28T08:26:00.373Z,53.38
2019-02-28T08:28:35.867Z,54.13
2019-02-28T08:31:01.118Z,67.42
2019-02-28T08:33:29.876Z,125.33
2019-02-28T08:35:58.726Z,66.57
2019-02-28T08:38:30.073Z,55.40
2019-02-28T08:40:58.016Z,51.42
2019-02-28T08:43:27.509Z,49.05
2019-02-28T08:45:56.466Z,49.20
2019-02-28T08:48:31.496Z,48.10
2019-02-28T08:50:56.697Z,48.10
2019-02-28T08:53:25.570Z,44.13
2019-02-28T08:55:54.293Z,46.37
2019-02-28T08:58:23.049Z,43.00
2019-02-28T09:00:51.787Z,48.48
2019-02-28T09:03:20.661Z,42.03
2019-02-28T09:05:49.506Z,46.73
2019-02-28T09:08:18.311Z,42.83
2019-02-28T09:10:47.892Z,37.20
2019-02-28T09:13:16.847Z,37.40
2019-02-28T09:15:45.758Z,38.80
2019-02-28T09:18:14.577Z,38.40
2019-02-28T09:20:45.114Z,37.88
2019-02-28T09:23:14.005Z,38.88
2019-02-28T09:25:42.744Z,39.13
2019-02-28T09:28:13.024Z,40.33
2019-02-28T09:30:42.164Z,39.45
2019-02-28T09:33:11.029Z,34.55
2019-02-28T09:35:45.240Z,40.38
2019-02-28T09:38:13.331Z,37.25
2019-02-28T09:40:41.345Z,40.33
2019-02-28T09:43:10.363Z,44.58
2019-02-28T09:45:39.919Z,42.40
2019-02-28T09:48:09.653Z,42.23
2019-02-28T09:50:38.558Z,47.03
2019-02-28T09:53:07.419Z,41.45
2019-02-28T09:55:36.300Z,42.73
2019-02-28T09:58:05.169Z,44.25
2019-02-28T10:00:34.078Z,44.15
2019-02-28T10:03:02.924Z,43.52
2019-02-28T10:05:31.726Z,45.00
2019-02-28T10:08:02.851Z,46.63
2019-02-28T10:10:31.098Z,44.15
2019-02-28T10:12:59.973Z,45.40
2019-02-28T10:15:28.814Z,46.10
2019-02-28T10:18:00.721Z,43.98
2019-02-28T10:20:28.727Z,43.68
2019-02-28T10:22:57.701Z,50.58
2019-02-28T10:25:26.628Z,49.77
2019-02-28T10:28:01.646Z,46.35
2019-02-28T10:30:31.604Z,54.10
2019-02-28T10:32:56.593Z,48.13
2019-02-28T10:35:25.451Z,47.08
2019-02-28T10:37:58.533Z,42.45
2019-02-28T10:40:25.239Z,45.28
2019-02-28T10:42:54.091Z,49.00
2019-02-28T10:45:23.120Z,50.65
2019-02-28T10:47:52.060Z,56.77
2019-02-28T10:50:22.634Z,49.25
2019-02-28T10:52:51.565Z,52.40
2019-02-28T10:55:22.452Z,49.35
2019-02-28T10:57:51.140Z,45.15
2019-02-28T11:00:23.870Z,45.75
2019-02-28T11:02:54.065Z,39.55
2019-02-28T11:05:28.794Z,42.20
2019-02-28T11:07:57.537Z,38.65
2019-02-28T11:10:35.059Z,39.30
2019-02-28T11:13:01.336Z,39.18
2019-02-28T11:15:30.293Z,41.77
2019-02-28T11:17:59.273Z,41.68
2019-02-28T11:20:28.019Z,40.10
2019-02-28T11:22:56.803Z,59.93
2019-02-28T11:25:26.339Z,49.00
2019-02-28T11:27:55.328Z,74.72
2019-02-28T11:30:24.871Z,115.08
2019-02-28T11:32:53.869Z,88.22
2019-02-28T11:35:23.248Z,76.20
2019-02-28T11:37:52.882Z,82.45
2019-02-28T11:40:23.046Z,82.22
2019-02-28T11:42:52.023Z,77.80
2019-02-28T11:45:25.326Z,67.85
2019-02-28T11:47:54.403Z,68.87
2019-02-28T11:50:23.346Z,69.03
2019-02-28T11:52:52.220Z,60.23
2019-02-28T11:55:21.336Z,59.05
2019-02-28T11:57:50.263Z,54.88
2019-02-28T12:00:21.728Z,61.35
2019-02-28T12:02:53.207Z,56.75
2019-02-28T12:05:21.412Z,55.83
2019-02-28T12:07:50.369Z,52.48
2019-02-28T12:10:20.037Z,55.98
2019-02-28T12:12:49.003Z,49.05
2019-02-28T12:15:19.069Z,54.08
2019-02-28T12:17:47.877Z,51.95
2019-02-28T12:20:16.761Z,58.87
2019-02-28T12:22:49.229Z,65.03
2019-02-28T12:25:17.515Z,67.58
2019-02-28T12:27:46.363Z,68.83
2019-02-28T12:30:22.039Z,67.32
2019-02-28T12:32:52.546Z,59.25
2019-02-28T12:35:21.436Z,64.87
2019-02-28T12:37:53.818Z,59.10
2019-02-28T12:40:23.227Z,65.80
2019-02-28T12:42:52.117Z,63.48
2019-02-28T12:45:29.645Z,56.08
2019-02-28T12:47:58.631Z,55.58
2019-02-28T12:50:29.483Z,55.25
2019-02-28T12:52:58.330Z,60.05
2019-02-28T12:55:27.363Z,54.38
2019-02-28T12:57:57.809Z,52.27
2019-02-28T13:00:34.880Z,52.43
2019-02-28T13:03:03.846Z,46.65
2019-02-28T13:05:32.765Z,43.40
2019-02-28T13:08:01.690Z,47.78
2019-02-28T13:10:31.193Z,43.63
2019-02-28T13:13:06.406Z,44.40
2019-02-28T13:15:30.785Z,46.35
2019-02-28T13:17:59.702Z,47.80
2019-02-28T13:20:32.734Z,46.68
2019-02-28T13:23:01.099Z,44.65
2019-02-28T13:25:30.360Z,46.75
2019-02-28T13:27:59.327Z,39.30
2019-02-28T13:30:28.241Z,37.48
2019-02-28T13:32:57.302Z,41.88
2019-02-28T13:35:28.347Z,39.53
2019-02-28T13:37:57.196Z,40.75
2019-02-28T13:40:26.124Z,39.80
2019-02-28T13:42:55.093Z,36.60
2019-02-28T13:45:24.885Z,40.67
2019-02-28T13:47:53.938Z,34.27
2019-02-28T13:50:25.928Z,33.48
2019-02-28T13:52:54.863Z,41.42
2019-02-28T13:55:23.874Z,37.55
2019-02-28T13:57:52.870Z,41.35
2019-02-28T14:00:24.004Z,38.90
2019-02-28T14:02:55.104Z,34.88
2019-02-28T14:05:24.032Z,37.50
2019-02-28T14:07:52.938Z,34.70
2019-02-28T14:10:22.919Z,36.88
2019-02-28T14:12:53.187Z,33.28
2019-02-28T14:15:25.240Z,38.85
2019-02-28T14:17:54.266Z,30.77
2019-02-28T14:20:24.365Z,33.83
2019-02-28T14:22:53.678Z,34.83
2019-02-28T14:25:22.770Z,40.40
2019-02-28T14:27:51.730Z,33.67
2019-02-28T14:30:22.820Z,38.30
2019-02-28T14:32:52.613Z,37.70
2019-02-28T14:35:22.953Z,35.08
2019-02-28T14:37:55.861Z,33.83
2019-02-28T14:40:22.567Z,30.23
2019-02-28T14:42:51.598Z,33.20
2019-02-28T14:45:20.952Z,29.07
2019-02-28T14:47:56.911Z,31.27
2019-02-28T14:52:52.650Z,30.62
2019-02-28T14:55:21.629Z,24.75
2019-02-28T14:57:50.465Z,23.55
2019-02-28T15:00:22.410Z,26.73
2019-02-28T15:02:51.399Z,23.10
2019-02-28T15:05:21.538Z,23.30
2019-02-28T15:07:50.711Z,25.43
2019-02-28T15:10:20.002Z,24.23
2019-02-28T15:12:48.963Z,21.82
2019-02-28T15:15:19.334Z,19.55
2019-02-28T15:17:48.826Z,20.85
2019-02-28T15:20:17.694Z,19.67
2019-02-28T15:22:46.872Z,18.65
2019-02-28T15:25:18.477Z,21.65
2019-02-28T15:27:47.716Z,24.23
2019-02-28T15:30:22.151Z,20.20
2019-02-28T15:32:54.252Z,19.77
2019-02-28T15:35:22.306Z,22.20
2019-02-28T15:37:51.219Z,18.57
2019-02-28T15:40:24.729Z,20.32
2019-02-28T15:45:21.831Z,20.10
2019-02-28T15:47:59.056Z,20.85
2019-02-28T15:50:27.152Z,17.00
2019-02-28T15:52:56.325Z,19.00
2019-02-28T15:55:25.308Z,15.13
2019-02-28T15:57:54.175Z,17.95
2019-02-28T16:00:25.233Z,15.15
2019-02-28T16:02:54.098Z,14.38
2019-02-28T16:05:23.538Z,19.67
2019-02-28T16:07:52.495Z,14.25
2019-02-28T16:10:23.097Z,14.70
2019-02-28T16:12:52.109Z,17.57
2019-02-28T16:15:21.206Z,14.07
2019-02-28T16:17:50.089Z,17.07
2019-02-28T16:20:18.961Z,17.10
2019-02-28T16:22:52.093Z,13.65
2019-02-28T16:25:21.027Z,13.68
2019-02-28T16:27:49.885Z,16.42
2019-02-28T16:30:18.852Z,16.77
2019-02-28T16:32:49.161Z,12.88
2019-02-28T16:35:18.617Z,12.28
2019-02-28T16:37:47.538Z,14.25
2019-02-28T16:40:20.738Z,11.28
2019-02-28T16:42:48.416Z,14.73
2019-02-28T16:45:24.773Z,15.25
2019-02-28T16:47:55.623Z,16.35
2019-02-28T16:50:24.259Z,15.10
2019-02-28T16:52:53.350Z,16.52
2019-02-28T16:55:22.380Z,14.87
2019-02-28T16:57:51.434Z,15.78
2019-02-28T17:00:20.415Z,17.02
2019-02-28T17:02:50.350Z,18.65
2019-02-28T17:05:19.234Z,12.82
2019-02-28T17:07:48.262Z,14.70
2019-02-28T17:10:19.243Z,14.98
2019-02-28T17:13:11.505Z,15.28
2019-02-28T17:16:01.481Z,14.03
2019-02-28T17:18:29.288Z,14.07
2019-02-28T17:20:58.307Z,14.90
2019-02-28T17:23:27.345Z,14.03
2019-02-28T17:25:57.366Z,16.02
2019-02-28T17:28:46.477Z,14.10
2019-02-28T17:31:50.487Z,11.40
2019-02-28T17:34:23.698Z,13.18
2019-02-28T17:36:51.805Z,17.45
2019-02-28T17:39:21.199Z,18.07
2019-02-28T17:41:50.411Z,22.75
2019-02-28T17:44:49.799Z,22.02
2019-02-28T17:47:53.006Z,19.35
2019-02-28T17:50:50.964Z,21.45
2019-02-28T17:53:45.634Z,24.65
2019-02-28T17:56:44.640Z,19.40
2019-02-28T18:00:12.980Z,22.50
2019-02-28T18:03:19.422Z,20.50
2019-02-28T18:06:22.628Z,20.50
2019-02-28T18:09:17.731Z,21.30
2019-02-28T18:12:17.702Z,26.50
2019-02-28T18:15:12.106Z,23.65
2019-02-28T18:18:23.569Z,25.92
2019-02-28T18:21:37.489Z,26.48
2019-02-28T18:25:02.086Z,25.50
2019-02-28T18:27:47.838Z,21.20
2019-02-28T18:30:59.963Z,28.05
2019-02-28T18:33:29.465Z,25.27
2019-02-28T18:35:58.735Z,23.77
2019-02-28T18:38:29.279Z,28.23
2019-02-28T18:41:00.108Z,29.77
2019-02-28T18:43:29.726Z,24.60
2019-02-28T18:46:00.073Z,25.55
2019-02-28T18:48:30.136Z,24.18
2019-02-28T18:51:00.702Z,27.82
2019-02-28T18:53:30.142Z,25.72
2019-02-28T18:55:59.433Z,22.58
2019-02-28T18:58:29.045Z,29.30
2019-02-28T19:00:58.719Z,29.65
2019-02-28T19:03:28.770Z,27.80
2019-02-28T19:05:58.731Z,22.77
2019-02-28T19:08:28.058Z,25.45
2019-02-28T19:10:57.510Z,21.62
2019-02-28T19:13:27.009Z,20.60
2019-02-28T19:15:56.744Z,21.33
2019-02-28T19:18:25.982Z,20.85
2019-02-28T19:20:55.821Z,18.25
2019-02-28T19:23:26.371Z,20.02
2019-02-28T19:25:55.421Z,17.85
2019-02-28T19:28:25.904Z,19.67
2019-02-28T19:30:55.459Z,17.65
2019-02-28T19:33:25.067Z,17.90
2019-02-28T19:35:54.335Z,17.57
2019-02-28T19:38:24.133Z,17.52
2019-02-28T19:40:53.903Z,16.90
2019-02-28T19:43:24.203Z,18.85
2019-02-28T19:45:55.378Z,15.80
2019-02-28T19:48:25.437Z,18.27
2019-02-28T19:50:56.591Z,15.00
2019-02-28T19:53:26.222Z,18.02
2019-02-28T19:55:56.799Z,16.35
2019-02-28T19:58:26.930Z,16.77
2019-02-28T20:00:57.117Z,17.35
2019-02-28T20:03:26.814Z,16.42
2019-02-28T20:05:55.974Z,17.00
2019-02-28T20:08:26.130Z,15.28
2019-02-28T20:10:56.011Z,15.43
2019-02-28T20:13:26.262Z,15.55
2019-02-28T20:15:56.212Z,17.57
2019-02-28T20:18:25.828Z,13.28
2019-02-28T20:20:56.017Z,15.32
2019-02-28T20:23:25.616Z,15.23
2019-02-28T20:25:55.266Z,13.43
2019-02-28T20:28:25.884Z,15.55
2019-02-28T20:30:55.732Z,14.20
2019-02-28T20:33:25.779Z,13.53
2019-02-28T20:35:55.865Z,16.00
2019-02-28T20:38:26.370Z,14.45
2019-02-28T20:40:56.862Z,13.98
2019-02-28T20:43:26.774Z,13.75
2019-02-28T20:45:56.897Z,14.38
2019-02-28T20:48:26.302Z,15.13
2019-02-28T20:50:56.485Z,14.55
2019-02-28T20:53:26.877Z,15.72
2019-02-28T20:55:56.798Z,14.38
2019-02-28T20:58:27.058Z,16.25
2019-02-28T21:00:57.398Z,15.43
2019-02-28T21:03:27.138Z,15.48
2019-02-28T21:05:57.036Z,14.23
2019-02-28T21:08:28.030Z,15.53
2019-02-28T21:10:57.546Z,16.10
2019-02-28T21:13:28.008Z,14.65
2019-02-28T21:15:57.602Z,13.28
2019-02-28T21:18:27.925Z,15.88
2019-02-28T21:20:57.303Z,14.47
2019-02-28T21:23:26.547Z,14.03
2019-02-28T21:25:57.374Z,15.60
2019-02-28T21:28:26.741Z,14.23
2019-02-28T21:30:56.135Z,14.73
2019-02-28T21:33:25.289Z,14.05
2019-02-28T21:35:54.341Z,16.17
2019-02-28T21:38:23.718Z,14.85
2019-02-28T21:40:53.261Z,13.43
2019-02-28T21:43:22.595Z,15.83
2019-02-28T21:45:51.835Z,14.70
2019-02-28T21:48:21.413Z,14.83
2019-02-28T21:50:50.702Z,14.38
2019-02-28T21:53:19.603Z,15.45
2019-02-28T21:55:49.075Z,13.68
2019-02-28T21:58:17.965Z,14.35
2019-02-28T22:00:46.978Z,14.70
2019-02-28T22:03:15.914Z,19.62
2019-02-28T22:05:45.068Z,16.57
2019-02-28T22:08:14.111Z,16.42
2019-02-28T22:10:42.893Z,16.20
2019-02-28T22:13:12.230Z,16.07
2019-02-28T22:15:41.225Z,16.70
2019-02-28T22:18:10.076Z,17.35
2019-02-28T22:20:39.019Z,14.78
2019-02-28T22:23:07.969Z,14.35
2019-02-28T22:25:36.809Z,16.67
2019-02-28T22:28:05.709Z,17.48
2019-02-28T22:30:56.524Z,13.68
2019-02-28T22:33:56.459Z,17.37
2019-02-28T22:36:34.844Z,14.87
2019-02-28T22:39:03.898Z,14.30
2019-02-28T22:41:32.813Z,15.50
2019-02-28T22:44:01.677Z,14.30
2019-02-28T22:46:30.641Z,14.58
2019-02-28T22:48:59.517Z,12.75
2019-02-28T22:51:28.379Z,13.03
2019-02-28T22:53:57.159Z,13.72
2019-02-28T22:56:25.977Z,16.55
2019-02-28T22:58:54.858Z,11.80
2019-02-28T23:01:23.863Z,11.08
2019-02-28T23:03:52.684Z,12.78
2019-02-28T23:06:21.539Z,11.80
2019-02-28T23:08:50.466Z,12.80
2019-02-28T23:11:19.383Z,11.63
2019-02-28T23:13:48.196Z,13.13
2019-02-28T23:16:17.075Z,11.83
2019-02-28T23:18:46.030Z,12.80
2019-02-28T23:21:14.872Z,10.70
2019-02-28T23:23:43.756Z,11.35
2019-02-28T23:26:14.268Z,12.82
2019-02-28T23:29:06.311Z,12.73
2019-02-28T23:32:08.470Z,10.90
2019-02-28T23:34:39.892Z,11.43
2019-02-28T23:37:08.795Z,10.75
2019-02-28T23:39:37.629Z,9.73
2019-02-28T23:42:06.485Z,13.50
2019-02-28T23:44:35.305Z,10.65
2019-02-28T23:47:04.227Z,10.43
2019-02-28T23:49:33.076Z,10.70
2019-02-28T23:52:01.853Z,10.55
2019-02-28T23:54:30.701Z,13.08
2019-02-28T23:56:59.737Z,8.70
2019-02-28T23:59:28.634Z,11.30
